createdAt,value
2023-08-08T00:00:50.677Z,100062.84
2023-08-08T00:03:36.066Z,100066.64
2023-08-08T00:06:04.923Z,100069.50
2023-08-08T00:08:33.510Z,100071.73
2023-08-08T00:11:02.220Z,100074.83
2023-08-08T00:13:30.843Z,100079.89
2023-08-08T00:15:59.441Z,100079.80
2023-08-08T00:18:28.179Z,100083.71
2023-08-08T00:20:56.753Z,100083.77
2023-08-08T00:23:25.288Z,100080.03
2023-08-08T00:25:53.863Z,100076.48
2023-08-08T00:28:22.370Z,100074.02
2023-08-08T00:30:51.067Z,100061.29
2023-08-08T00:33:19.736Z,100057.45
2023-08-08T00:35:48.342Z,100052.20
2023-08-08T00:38:18.272Z,100053.68
2023-08-08T00:40:47.467Z,100055.90
2023-08-08T00:43:15.963Z,100056.83
2023-08-08T00:45:45.993Z,100058.41
2023-08-08T00:48:14.727Z,100064.61
2023-08-08T00:50:45.961Z,100063.51
2023-08-08T00:53:14.514Z,100059.32
2023-08-08T00:55:44.560Z,100052.52
2023-08-08T00:58:14.329Z,100051.59
2023-08-08T01:00:43.480Z,100048.59
2023-08-08T01:03:12.285Z,100046.30
2023-08-08T01:05:55.850Z,100049.87
2023-08-08T01:08:34.301Z,100052.57
2023-08-08T01:11:03.962Z,100048.11
2023-08-08T01:13:34.016Z,100049.52
2023-08-08T01:16:04.714Z,100058.31
2023-08-08T01:18:34.836Z,100066.95
2023-08-08T01:21:05.082Z,100078.95
2023-08-08T01:23:54.445Z,100087.29
2023-08-08T01:26:23.713Z,100096.04
2023-08-08T01:28:58.396Z,100096.88
2023-08-08T01:31:26.903Z,100095.52
2023-08-08T01:33:55.510Z,100098.30
2023-08-08T01:36:41.565Z,100105.02
2023-08-08T01:39:18.374Z,100120.74
2023-08-08T01:41:49.335Z,100133.12
2023-08-08T01:44:19.147Z,100140.19
2023-08-08T01:46:48.785Z,100150.04
2023-08-08T01:49:17.362Z,100155.52
2023-08-08T01:51:45.967Z,100157.12
2023-08-08T01:54:15.640Z,100161.26
2023-08-08T01:56:44.286Z,100159.91
2023-08-08T01:59:15.950Z,100160.62
2023-08-08T02:01:45.317Z,100159.73
2023-08-08T02:04:14.033Z,100164.75
2023-08-08T02:06:42.626Z,100165.14
2023-08-08T02:09:11.307Z,100162.13
2023-08-08T02:11:40.530Z,100162.77
2023-08-08T02:14:09.252Z,100158.47
2023-08-08T02:16:37.921Z,100160.86
2023-08-08T02:19:06.769Z,100166.17
2023-08-08T02:21:35.329Z,100164.98
2023-08-08T02:24:04.340Z,100171.73
2023-08-08T02:26:34.145Z,100170.16
2023-08-08T02:29:02.690Z,100168.58
2023-08-08T02:31:31.448Z,100164.13
2023-08-08T02:34:00.037Z,100166.57
2023-08-08T02:36:28.596Z,100166.57
2023-08-08T02:38:57.182Z,100169.90
2023-08-08T02:41:25.827Z,100170.63
2023-08-08T02:43:54.411Z,100169.44
2023-08-08T02:46:23.187Z,100177.38
2023-08-08T02:48:51.923Z,100188.02
2023-08-08T02:51:20.634Z,100193.34
2023-08-08T02:53:49.908Z,100198.34
2023-08-08T02:56:18.822Z,100196.05
2023-08-08T02:58:47.418Z,100190.88
2023-08-08T03:01:17.303Z,100193.02
2023-08-08T03:03:46.468Z,100196.26
2023-08-08T03:06:15.937Z,100193.88
2023-08-08T03:08:44.577Z,100192.75
2023-08-08T03:11:13.215Z,100191.24
2023-08-08T03:13:41.815Z,100194.09
2023-08-08T03:16:10.744Z,100201.31
2023-08-08T03:18:39.911Z,100202.11
2023-08-08T03:21:08.502Z,100206.88
2023-08-08T03:23:37.465Z,100213.95
2023-08-08T03:26:06.134Z,100220.92
2023-08-08T03:28:35.016Z,100218.39
2023-08-08T03:31:04.601Z,100213.68
2023-08-08T03:33:33.666Z,100217.02
2023-08-08T03:36:02.480Z,100213.91
2023-08-08T03:38:31.326Z,100212.14
2023-08-08T03:41:00.237Z,100215.38
2023-08-08T03:43:29.109Z,100218.94
2023-08-08T03:45:58.635Z,100219.55
2023-08-08T03:48:27.302Z,100229.00
2023-08-08T03:50:55.945Z,100238.29
2023-08-08T03:53:24.625Z,100247.04
2023-08-08T03:55:53.347Z,100257.98
2023-08-08T03:58:23.081Z,100264.49
2023-08-08T04:00:51.788Z,100274.58
2023-08-08T04:03:20.706Z,100280.39
2023-08-08T04:05:49.389Z,100278.05
2023-08-08T04:08:20.890Z,100274.79
2023-08-08T04:10:49.788Z,100275.08
2023-08-08T04:13:18.375Z,100276.79
2023-08-08T04:15:47.114Z,100280.52
2023-08-08T04:18:15.734Z,100287.20
2023-08-08T04:20:44.719Z,100287.49
2023-08-08T04:23:13.260Z,100297.58
2023-08-08T04:25:41.973Z,100301.20
2023-08-08T04:28:10.739Z,100298.05
2023-08-08T04:30:39.362Z,100298.73
2023-08-08T04:33:08.056Z,100290.53
2023-08-08T04:35:36.980Z,100282.80
2023-08-08T04:38:05.669Z,100272.45
2023-08-08T04:40:35.155Z,100275.59
2023-08-08T04:43:05.390Z,100283.58
2023-08-08T04:45:34.876Z,100286.96
2023-08-08T04:48:03.639Z,100290.30
2023-08-08T04:50:32.344Z,100307.67
2023-08-08T04:53:00.860Z,100313.09
2023-08-08T04:55:29.437Z,100325.23
2023-08-08T04:57:58.056Z,100330.92
2023-08-08T05:00:28.195Z,100334.06
2023-08-08T05:02:56.864Z,100337.09
2023-08-08T05:05:25.802Z,100342.59
2023-08-08T05:07:54.696Z,100335.08
2023-08-08T05:10:24.407Z,100338.11
2023-08-08T05:12:53.201Z,100342.67
2023-08-08T05:15:22.101Z,100348.14
2023-08-08T05:17:50.975Z,100350.45
2023-08-08T05:20:19.888Z,100347.89
2023-08-08T05:22:49.301Z,100337.41
2023-08-08T05:25:18.046Z,100324.30
2023-08-08T05:27:46.727Z,100313.66
2023-08-08T05:30:15.420Z,100311.73
2023-08-08T05:32:44.085Z,100326.12
2023-08-08T05:35:12.729Z,100342.82
2023-08-08T05:37:41.377Z,100353.19
2023-08-08T05:40:11.616Z,100353.52
2023-08-08T05:42:40.411Z,100356.44
2023-08-08T05:45:09.833Z,100352.48
2023-08-08T05:47:38.469Z,100348.92
2023-08-08T05:50:08.179Z,100347.67
2023-08-08T05:52:36.758Z,100352.79
2023-08-08T05:55:06.064Z,100353.09
2023-08-08T05:57:34.743Z,100356.01
2023-08-08T06:00:04.635Z,100362.77
2023-08-08T06:02:41.260Z,100364.89
2023-08-08T06:05:10.379Z,100363.75
2023-08-08T06:07:39.450Z,100366.20
2023-08-08T06:10:09.515Z,100362.73
2023-08-08T06:12:38.214Z,100363.41
2023-08-08T06:15:07.972Z,100363.40
2023-08-08T06:17:36.617Z,100364.21
2023-08-08T06:20:08.186Z,100363.72
2023-08-08T06:22:36.981Z,100363.94
2023-08-08T06:25:06.369Z,100369.98
2023-08-08T06:27:35.037Z,100367.89
2023-08-08T06:30:04.349Z,100361.41
2023-08-08T06:32:33.052Z,100368.45
2023-08-08T06:35:01.805Z,100373.41
2023-08-08T06:37:30.629Z,100378.04
2023-08-08T06:39:59.225Z,100376.11
2023-08-08T06:42:27.839Z,100376.38
2023-08-08T06:44:58.330Z,100369.19
2023-08-08T06:47:27.034Z,100365.83
2023-08-08T06:49:55.812Z,100368.02
2023-08-08T06:52:24.459Z,100368.17
2023-08-08T06:54:53.068Z,100376.31
2023-08-08T06:57:21.665Z,100390.08
2023-08-08T06:59:52.131Z,100401.33
2023-08-08T07:02:22.240Z,100400.77
2023-08-08T07:04:51.415Z,100396.73
2023-08-08T07:07:20.032Z,100393.54
2023-08-08T07:09:50.126Z,100387.63
2023-08-08T07:12:18.769Z,100385.58
2023-08-08T07:14:47.364Z,100388.40
2023-08-08T07:17:15.953Z,100390.70
2023-08-08T07:19:44.737Z,100392.23
2023-08-08T07:22:13.434Z,100397.76
2023-08-08T07:24:42.126Z,100416.67
2023-08-08T07:27:10.698Z,100420.60
2023-08-08T07:29:39.381Z,100420.85
2023-08-08T07:32:08.371Z,100422.83
2023-08-08T07:34:37.061Z,100424.02
2023-08-08T07:37:06.046Z,100427.85
2023-08-08T07:39:34.950Z,100430.46
2023-08-08T07:42:03.873Z,100433.54
2023-08-08T07:44:33.927Z,100433.39
2023-08-08T07:47:02.552Z,100437.99
2023-08-08T07:49:31.176Z,100444.17
2023-08-08T07:52:00.074Z,100439.73
2023-08-08T07:54:28.879Z,100439.30
2023-08-08T07:56:57.486Z,100439.59
2023-08-08T07:59:26.099Z,100439.85
2023-08-08T08:01:54.808Z,100437.73
2023-08-08T08:04:23.485Z,100435.73
2023-08-08T08:06:52.042Z,100433.73
2023-08-08T08:09:20.596Z,100431.38
2023-08-08T08:11:49.183Z,100431.71
2023-08-08T08:14:17.858Z,100430.05
2023-08-08T08:16:47.045Z,100425.25
2023-08-08T08:19:15.672Z,100423.88
2023-08-08T08:21:44.565Z,100422.17
2023-08-08T08:24:13.144Z,100416.84
2023-08-08T08:26:41.730Z,100413.01
2023-08-08T08:29:10.295Z,100401.26
2023-08-08T08:31:39.662Z,100396.35
2023-08-08T08:34:08.293Z,100399.89
2023-08-08T08:36:36.914Z,100412.60
2023-08-08T08:39:05.613Z,100419.53
2023-08-08T08:41:37.872Z,100419.77
2023-08-08T08:44:09.632Z,100416.54
2023-08-08T08:46:39.429Z,100418.70
2023-08-08T08:49:10.143Z,100424.10
2023-08-08T08:51:38.780Z,100423.41
2023-08-08T08:54:07.696Z,100428.34
2023-08-08T08:56:36.287Z,100430.89
2023-08-08T08:59:06.302Z,100427.70
2023-08-08T09:01:35.047Z,100428.77
2023-08-08T09:04:05.215Z,100429.39
2023-08-08T09:06:34.107Z,100433.30
2023-08-08T09:09:15.326Z,100441.36
2023-08-08T09:11:48.753Z,100443.52
2023-08-08T09:14:23.524Z,100437.77
2023-08-08T09:16:57.184Z,100436.85
2023-08-08T09:19:26.286Z,100437.77
2023-08-08T09:21:54.946Z,100435.32
2023-08-08T09:24:23.926Z,100441.54
2023-08-08T09:26:52.504Z,100446.87
2023-08-08T09:29:21.382Z,100452.56
2023-08-08T09:31:50.890Z,100456.84
2023-08-08T09:34:19.400Z,100453.56
2023-08-08T09:36:48.600Z,100447.70
2023-08-08T09:39:17.952Z,100455.77
2023-08-08T09:41:48.276Z,100461.19
2023-08-08T09:44:16.994Z,100456.25
2023-08-08T09:46:45.614Z,100449.05
2023-08-08T09:49:15.839Z,100455.25
2023-08-08T09:51:45.040Z,100452.46
2023-08-08T09:54:15.186Z,100455.36
2023-08-08T09:56:45.080Z,100456.11
2023-08-08T09:59:14.433Z,100451.86
2023-08-08T10:01:43.672Z,100451.46
2023-08-08T10:04:14.542Z,100453.08
2023-08-08T10:06:43.167Z,100458.79
2023-08-08T10:09:12.942Z,100457.79
2023-08-08T10:11:43.845Z,100455.35
2023-08-08T10:14:12.639Z,100455.25
2023-08-08T10:16:46.875Z,100455.83
2023-08-08T10:19:24.306Z,100454.08
2023-08-08T10:22:05.432Z,100454.73
2023-08-08T10:24:38.327Z,100456.30
2023-08-08T10:27:07.119Z,100457.05
2023-08-08T10:29:40.622Z,100455.73
2023-08-08T10:32:09.578Z,100454.27
2023-08-08T10:34:47.647Z,100456.30
2023-08-08T10:37:19.323Z,100452.50
2023-08-08T10:40:01.661Z,100453.78
2023-08-08T10:42:32.313Z,100453.55
2023-08-08T10:45:03.943Z,100445.95
2023-08-08T10:47:36.734Z,100451.38
2023-08-08T10:50:10.489Z,100450.33
2023-08-08T10:52:54.892Z,100448.02
2023-08-08T10:55:36.045Z,100442.95
2023-08-08T10:58:15.470Z,100439.22
2023-08-08T11:00:44.705Z,100437.22
2023-08-08T11:03:13.764Z,100444.06
2023-08-08T11:05:46.050Z,100449.33
2023-08-08T11:08:14.993Z,100452.58
2023-08-08T11:10:43.705Z,100458.02
2023-08-08T11:13:12.286Z,100459.83
2023-08-08T11:15:41.094Z,100453.81
2023-08-08T11:18:10.943Z,100454.26
2023-08-08T11:20:40.874Z,100453.30
2023-08-08T11:23:11.936Z,100452.52
2023-08-08T11:25:46.239Z,100454.27
2023-08-08T11:28:15.731Z,100460.20
2023-08-08T11:30:46.878Z,100459.35
2023-08-08T11:33:16.967Z,100460.75
2023-08-08T11:35:50.263Z,100454.65
2023-08-08T11:38:19.265Z,100452.64
2023-08-08T11:40:48.095Z,100445.77
2023-08-08T11:43:18.628Z,100447.91
2023-08-08T11:45:50.593Z,100443.35
2023-08-08T11:48:22.959Z,100440.39
2023-08-08T11:50:54.362Z,100439.21
2023-08-08T11:53:24.856Z,100443.80
2023-08-08T11:55:53.522Z,100440.44
2023-08-08T11:58:25.139Z,100441.55
2023-08-08T12:00:55.709Z,100444.01
2023-08-08T12:03:27.715Z,100442.70
2023-08-08T12:05:56.497Z,100440.27
2023-08-08T12:08:25.336Z,100441.28
2023-08-08T12:10:55.561Z,100440.33
2023-08-08T12:13:28.095Z,100435.94
2023-08-08T12:15:56.874Z,100435.93
2023-08-08T12:18:25.726Z,100431.71
2023-08-08T12:20:54.454Z,100430.20
2023-08-08T12:23:23.065Z,100431.10
2023-08-08T12:25:52.029Z,100434.55
2023-08-08T12:28:20.638Z,100433.92
2023-08-08T12:30:49.299Z,100427.79
2023-08-08T12:33:18.073Z,100420.46
2023-08-08T12:35:46.672Z,100419.41
2023-08-08T12:38:15.828Z,100422.02
2023-08-08T12:40:44.449Z,100418.54
2023-08-08T12:43:18.834Z,100420.85
2023-08-08T12:45:48.996Z,100415.75
2023-08-08T12:48:17.704Z,100413.31
2023-08-08T12:50:46.388Z,100413.25
2023-08-08T12:53:15.031Z,100411.41
2023-08-08T12:55:43.675Z,100412.25
2023-08-08T12:58:12.380Z,100409.40
2023-08-08T13:00:41.064Z,100409.01
2023-08-08T13:03:10.760Z,100400.14
2023-08-08T13:05:40.050Z,100404.95
2023-08-08T13:08:08.740Z,100402.43
2023-08-08T13:10:37.992Z,100399.05
2023-08-08T13:13:07.132Z,100396.14
2023-08-08T13:15:36.518Z,100393.62
2023-08-08T13:18:06.378Z,100398.77
2023-08-08T13:20:35.116Z,100392.48
2023-08-08T13:23:05.391Z,100385.58
2023-08-08T13:25:35.567Z,100384.34
2023-08-08T13:28:04.604Z,100391.38
2023-08-08T13:30:34.375Z,100396.58
2023-08-08T13:33:03.473Z,100395.13
2023-08-08T13:35:32.257Z,100387.84
2023-08-08T13:38:01.116Z,100390.42
2023-08-08T13:40:29.771Z,100391.04
2023-08-08T13:42:58.387Z,100396.70
2023-08-08T13:45:27.052Z,100396.26
2023-08-08T13:47:56.135Z,100394.01
2023-08-08T13:50:24.783Z,100390.75
2023-08-08T13:52:54.544Z,100393.44
2023-08-08T13:55:23.342Z,100395.24
2023-08-08T13:57:52.027Z,100396.45
2023-08-08T14:00:20.632Z,100405.23
2023-08-08T14:02:49.855Z,100406.12
2023-08-08T14:05:18.611Z,100404.73
2023-08-08T14:07:47.293Z,100402.53
2023-08-08T14:10:15.896Z,100405.62
2023-08-08T14:12:44.583Z,100404.05
2023-08-08T14:15:13.312Z,100403.66
2023-08-08T14:17:41.968Z,100403.84
2023-08-08T14:20:11.046Z,100405.15
2023-08-08T14:22:39.710Z,100404.95
2023-08-08T14:25:08.922Z,100404.88
2023-08-08T14:27:37.608Z,100401.73
2023-08-08T14:30:07.185Z,100397.21
2023-08-08T14:32:36.128Z,100395.72
2023-08-08T14:35:06.063Z,100397.54
2023-08-08T14:37:34.706Z,100399.58
2023-08-08T14:40:04.158Z,100397.59
2023-08-08T14:42:32.828Z,100397.52
2023-08-08T14:45:01.508Z,100401.75
2023-08-08T14:47:30.100Z,100405.85
2023-08-08T14:49:58.816Z,100407.13
2023-08-08T14:52:27.522Z,100400.77
2023-08-08T14:54:56.195Z,100395.98
2023-08-08T14:57:25.080Z,100392.48
2023-08-08T14:59:53.732Z,100384.61
2023-08-08T15:02:22.415Z,100383.83
2023-08-08T15:04:52.176Z,100396.44
2023-08-08T15:07:21.663Z,100399.23
2023-08-08T15:09:51.047Z,100408.55
2023-08-08T15:12:19.665Z,100410.98
2023-08-08T15:14:49.897Z,100408.48
2023-08-08T15:17:18.556Z,100411.27
2023-08-08T15:19:47.192Z,100412.01
2023-08-08T15:22:15.825Z,100418.77
2023-08-08T15:24:44.869Z,100422.56
2023-08-08T15:27:13.523Z,100415.54
2023-08-08T15:29:42.226Z,100417.91
2023-08-08T15:32:10.891Z,100417.98
2023-08-08T15:34:39.610Z,100413.71
2023-08-08T15:37:08.273Z,100411.65
2023-08-08T15:39:36.985Z,100411.37
2023-08-08T15:42:05.636Z,100408.31
2023-08-08T15:44:34.166Z,100406.02
2023-08-08T15:47:03.023Z,100409.73
2023-08-08T15:49:32.010Z,100407.98
2023-08-08T15:52:00.922Z,100409.03
2023-08-08T15:54:29.514Z,100407.67
2023-08-08T15:56:58.289Z,100405.40
2023-08-08T15:59:27.074Z,100408.79
2023-08-08T16:01:55.789Z,100407.30
2023-08-08T16:04:24.441Z,100413.85
2023-08-08T16:06:53.127Z,100417.63
2023-08-08T16:09:21.764Z,100417.41
2023-08-08T16:11:50.467Z,100422.11
2023-08-08T16:14:19.087Z,100427.48
2023-08-08T16:16:47.707Z,100426.66
2023-08-08T16:19:16.724Z,100428.73
2023-08-08T16:21:45.447Z,100427.91
2023-08-08T16:24:14.019Z,100431.32
2023-08-08T16:26:42.590Z,100429.42
2023-08-08T16:29:11.195Z,100431.15
2023-08-08T16:31:42.679Z,100432.52
2023-08-08T16:34:11.326Z,100443.59
2023-08-08T16:36:41.203Z,100449.80
2023-08-08T16:39:18.157Z,100453.44
2023-08-08T16:41:47.748Z,100455.86
2023-08-08T16:44:16.517Z,100460.83
2023-08-08T16:46:45.261Z,100463.75
2023-08-08T16:49:14.122Z,100462.89
2023-08-08T16:51:44.353Z,100464.48
2023-08-08T16:54:12.977Z,100466.05
2023-08-08T16:56:41.544Z,100466.25
2023-08-08T16:59:10.364Z,100468.57
2023-08-08T17:01:42.501Z,100472.69
2023-08-08T17:04:16.344Z,100472.82
2023-08-08T17:06:45.039Z,100477.25
2023-08-08T17:09:14.564Z,100479.98
2023-08-08T17:11:43.199Z,100480.23
2023-08-08T17:14:11.794Z,100481.24
2023-08-08T17:16:41.630Z,100484.64
2023-08-08T17:19:11.103Z,100482.00
2023-08-08T17:21:39.688Z,100483.28
2023-08-08T17:24:08.407Z,100483.57
2023-08-08T17:26:38.793Z,100490.24
2023-08-08T17:29:07.487Z,100497.54
2023-08-08T17:31:36.599Z,100501.77
2023-08-08T17:34:07.269Z,100504.84
2023-08-08T17:36:36.481Z,100504.66
2023-08-08T17:39:05.350Z,100509.42
2023-08-08T17:41:34.021Z,100507.77
2023-08-08T17:44:03.268Z,100506.73
2023-08-08T17:46:31.913Z,100508.27
2023-08-08T17:49:00.692Z,100511.91
2023-08-08T17:51:29.337Z,100513.95
2023-08-08T17:53:57.949Z,100517.08
2023-08-08T17:56:26.896Z,100524.20
2023-08-08T17:58:55.581Z,100524.64
2023-08-08T18:01:24.286Z,100524.91
2023-08-08T18:03:53.012Z,100526.83
2023-08-08T18:06:21.623Z,100526.34
2023-08-08T18:08:50.409Z,100525.45
2023-08-08T18:11:19.000Z,100529.46
2023-08-08T18:13:49.426Z,100536.02
2023-08-08T18:16:18.296Z,100541.20
2023-08-08T18:18:46.923Z,100548.59
2023-08-08T18:21:15.553Z,100555.09
2023-08-08T18:23:44.223Z,100560.55
2023-08-08T18:26:18.363Z,100564.55
2023-08-08T18:28:47.034Z,100565.70
2023-08-08T18:31:15.691Z,100566.94
2023-08-08T18:33:44.823Z,100568.23
2023-08-08T18:36:13.713Z,100565.85
2023-08-08T18:38:43.876Z,100570.02
2023-08-08T18:41:12.610Z,100568.61
2023-08-08T18:43:41.765Z,100568.61
2023-08-08T18:46:10.502Z,100567.98
2023-08-08T18:48:39.035Z,100563.75
2023-08-08T18:51:07.836Z,100567.48
2023-08-08T18:53:37.680Z,100569.70
2023-08-08T18:56:06.361Z,100569.48
2023-08-08T18:58:35.278Z,100573.30
2023-08-08T19:01:05.331Z,100576.41
2023-08-08T19:03:34.236Z,100579.65
2023-08-08T19:06:04.564Z,100574.32
2023-08-08T19:08:33.216Z,100576.55
2023-08-08T19:11:01.814Z,100574.23
2023-08-08T19:13:30.404Z,100576.46
2023-08-08T19:15:58.994Z,100576.94
2023-08-08T19:18:27.852Z,100577.49
2023-08-08T19:20:56.609Z,100580.98
2023-08-08T19:23:25.486Z,100579.33
2023-08-08T19:26:02.923Z,100585.16
2023-08-08T19:28:31.562Z,100587.22
2023-08-08T19:31:00.224Z,100590.25
2023-08-08T19:33:30.672Z,100587.01
2023-08-08T19:36:01.543Z,100589.48
2023-08-08T19:38:30.404Z,100593.05
2023-08-08T19:40:59.204Z,100588.12
2023-08-08T19:43:27.959Z,100586.55
2023-08-08T19:45:57.011Z,100593.87
2023-08-08T19:48:25.945Z,100597.45
2023-08-08T19:50:54.797Z,100594.66
2023-08-08T19:53:23.365Z,100592.83
2023-08-08T19:55:54.005Z,100594.74
2023-08-08T19:58:22.604Z,100595.55
2023-08-08T20:00:51.216Z,100592.12
2023-08-08T20:03:19.964Z,100592.67
2023-08-08T20:05:48.690Z,100593.40
2023-08-08T20:08:17.307Z,100598.73
2023-08-08T20:10:46.026Z,100595.77
2023-08-08T20:13:15.412Z,100596.73
2023-08-08T20:15:44.033Z,100597.78
2023-08-08T20:18:12.842Z,100600.56
2023-08-08T20:20:41.591Z,100598.81
2023-08-08T20:23:10.468Z,100597.38
2023-08-08T20:25:39.805Z,100598.73
2023-08-08T20:28:08.628Z,100596.42
2023-08-08T20:30:38.648Z,100597.77
2023-08-08T20:33:07.519Z,100596.35
2023-08-08T20:35:36.238Z,100599.52
2023-08-08T20:38:04.905Z,100605.88
2023-08-08T20:40:33.498Z,100610.09
2023-08-08T20:43:02.330Z,100611.85
2023-08-08T20:45:31.508Z,100617.39
2023-08-08T20:48:00.216Z,100615.45
2023-08-08T20:50:29.112Z,100617.14
2023-08-08T20:52:57.682Z,100619.14
2023-08-08T20:55:26.331Z,100624.23
2023-08-08T20:57:55.712Z,100624.06
2023-08-08T21:00:24.330Z,100628.62
2023-08-08T21:02:53.001Z,100631.42
2023-08-08T21:05:21.700Z,100631.36
2023-08-08T21:07:50.732Z,100636.05
2023-08-08T21:10:19.419Z,100637.95
2023-08-08T21:12:48.021Z,100640.98
2023-08-08T21:15:16.791Z,100641.38
2023-08-08T21:17:47.246Z,100644.16
2023-08-08T21:20:17.134Z,100646.40
2023-08-08T21:22:45.774Z,100645.38
2023-08-08T21:25:15.007Z,100643.80
2023-08-08T21:27:43.616Z,100649.38
2023-08-08T21:30:12.685Z,100649.15
2023-08-08T21:32:41.384Z,100654.95
2023-08-08T21:35:10.068Z,100658.74
2023-08-08T21:37:39.694Z,100657.92
2023-08-08T21:40:09.068Z,100658.66
2023-08-08T21:42:38.773Z,100660.73
2023-08-08T21:45:07.849Z,100659.15
2023-08-08T21:47:36.400Z,100656.90
2023-08-08T21:50:05.691Z,100653.52
2023-08-08T21:52:34.316Z,100653.94
2023-08-08T21:55:02.967Z,100650.78
2023-08-08T21:57:32.684Z,100652.84
2023-08-08T22:00:01.307Z,100651.92
2023-08-08T22:02:30.287Z,100655.91
2023-08-08T22:04:58.923Z,100660.03
2023-08-08T22:07:27.582Z,100660.14
2023-08-08T22:09:56.171Z,100662.73
2023-08-08T22:12:25.273Z,100663.65
2023-08-08T22:14:54.262Z,100663.42
2023-08-08T22:17:22.869Z,100661.34
2023-08-08T22:19:52.940Z,100664.08
2023-08-08T22:22:21.634Z,100663.96
2023-08-08T22:24:50.276Z,100664.66
2023-08-08T22:27:18.871Z,100667.30
2023-08-08T22:29:47.506Z,100671.70
2023-08-08T22:32:16.193Z,100668.35
2023-08-08T22:34:44.839Z,100670.75
2023-08-08T22:37:13.477Z,100669.54
2023-08-08T22:39:42.094Z,100669.04
2023-08-08T22:42:10.817Z,100671.52
2023-08-08T22:44:39.432Z,100674.09
2023-08-08T22:47:08.540Z,100673.28
2023-08-08T22:49:37.126Z,100676.61
2023-08-08T22:52:05.806Z,100676.55
2023-08-08T22:54:34.434Z,100678.92
2023-08-08T22:57:03.381Z,100681.73
2023-08-08T22:59:32.311Z,100681.81
2023-08-08T23:02:01.436Z,100684.63
2023-08-08T23:04:30.083Z,100683.89
2023-08-08T23:06:58.847Z,100681.49
2023-08-08T23:09:29.968Z,100678.73
2023-08-08T23:11:58.733Z,100679.36
2023-08-08T23:14:27.383Z,100674.56
2023-08-08T23:16:56.530Z,100677.19
2023-08-08T23:19:26.496Z,100678.25
2023-08-08T23:21:55.081Z,100679.09
2023-08-08T23:24:23.664Z,100679.40
2023-08-08T23:26:52.421Z,100680.05
2023-08-08T23:29:21.541Z,100680.23
2023-08-08T23:31:50.360Z,100687.02
2023-08-08T23:34:19.065Z,100691.58
2023-08-08T23:36:47.672Z,100694.37
2023-08-08T23:39:19.200Z,100692.02
2023-08-08T23:41:47.948Z,100693.35
2023-08-08T23:44:16.535Z,100694.23
2023-08-08T23:46:45.200Z,100694.31
2023-08-08T23:49:13.815Z,100697.40
2023-08-08T23:51:44.521Z,100707.33
2023-08-08T23:54:13.657Z,100713.58
2023-08-08T23:56:42.385Z,100711.91
2023-08-08T23:59:11.006Z,100718.25
